Time;durP1;ratioP1;P1;durP2;ratioP2;P2;SDS_P1;SDS_P2;PMS_P1;PMS_P2;Temp;Humidity;BMP_temperature;BMP_pressure;BME280_temperature;BME280_humidity;BME280_pressure;Samples;Min_cycle;Max_cycle;Signal;HPM_P1;HPM_P2
2022/11/22 00:01:10;;;;;;;3.65;2.58;;;;;;;8.63;100.00;99847.38;5070869;28;20410;-74
2022/11/22 00:03:36;;;;;;;6.50;2.63;;;;;;;8.77;100.00;99845.28;5070931;28;20021;-74
2022/11/22 00:06:02;;;;;;;3.65;2.70;;;;;;;8.68;100.00;99827.81;5071699;28;20024;-74
2022/11/22 00:08:27;;;;;;;4.25;2.60;;;;;;;8.89;100.00;99829.38;5066984;28;20136;-74
2022/11/22 00:10:52;;;;;;;6.70;2.97;;;;;;;9.10;100.00;99828.31;5070153;28;20486;-73
2022/11/22 00:13:18;;;;;;;3.45;2.45;;;;;;;9.26;100.00;99815.13;5071817;28;20036;-74
2022/11/22 00:15:44;;;;;;;4.72;2.80;;;;;;;9.41;100.00;99822.47;5037000;28;20593;-73
2022/11/22 00:18:10;;;;;;;3.90;2.80;;;;;;;9.47;100.00;99817.50;5071257;28;20029;-73
2022/11/22 00:20:36;;;;;;;3.28;2.47;;;;;;;9.60;100.00;99816.16;5072505;28;20024;-73
2022/11/22 00:23:01;;;;;;;4.35;3.08;;;;;;;9.42;100.00;99788.16;5072183;28;20025;-72
2022/11/22 00:25:27;;;;;;;3.03;2.20;;;;;;;9.59;100.00;99827.28;5054100;28;20039;-73
2022/11/22 00:27:53;;;;;;;3.53;2.13;;;;;;;9.61;100.00;99823.06;5055194;28;20060;-73
2022/11/22 00:30:18;;;;;;;3.42;2.55;;;;;;;9.57;100.00;99815.19;5068212;28;20051;-72
2022/11/22 00:32:43;;;;;;;3.42;2.40;;;;;;;8.90;100.00;99777.94;5070674;28;20085;-73
2022/11/22 00:35:10;;;;;;;5.85;2.88;;;;;;;8.77;100.00;99801.50;5066232;28;20037;-73
2022/11/22 00:37:36;;;;;;;5.35;2.60;;;;;;;8.37;100.00;99813.00;5072625;28;20111;-73
2022/11/22 00:40:02;;;;;;;5.03;2.63;;;;;;;8.33;100.00;99831.72;5072537;28;20039;-73
2022/11/22 00:42:29;;;;;;;6.63;2.70;;;;;;;8.31;100.00;99823.94;5072490;28;20052;-73
2022/11/22 00:44:55;;;;;;;4.97;2.42;;;;;;;8.25;100.00;99834.88;5071329;28;20450;-73
2022/11/22 00:47:20;;;;;;;3.90;2.80;;;;;;;8.25;100.00;99840.03;5072348;28;20055;-73
2022/11/22 00:49:45;;;;;;;3.10;2.40;;;;;;;8.17;100.00;99799.44;5072387;28;20039;-75
2022/11/22 00:52:11;;;;;;;6.47;3.20;;;;;;;8.56;100.00;99858.25;5071999;28;20028;-73
2022/11/22 00:54:36;;;;;;;7.63;3.28;;;;;;;8.52;100.00;99820.41;5072054;28;20501;-73
2022/11/22 00:57:02;;;;;;;3.22;2.40;;;;;;;8.76;100.00;99864.13;5072351;28;20056;-73
2022/11/22 00:59:27;;;;;;;3.83;2.75;;;;;;;8.92;100.00;99865.50;5072302;28;20025;-74
2022/11/22 01:01:52;;;;;;;4.20;2.97;;;;;;;9.07;100.00;99850.59;5071962;28;20031;-74
2022/11/22 01:04:18;;;;;;;4.45;2.60;;;;;;;9.13;100.00;99851.59;5072022;28;20039;-73
2022/11/22 01:06:43;;;;;;;3.47;2.67;;;;;;;8.99;100.00;99859.75;5072000;28;20135;-73
2022/11/22 01:09:09;;;;;;;7.07;5.40;;;;;;;8.70;100.00;99849.34;5070819;28;20492;-73
2022/11/22 01:11:35;;;;;;;6.55;5.13;;;;;;;8.71;100.00;99840.81;5070654;28;20416;-73
2022/11/22 01:14:00;;;;;;;6.53;3.20;;;;;;;8.55;100.00;99853.97;5072106;28;20044;-73
2022/11/22 01:16:26;;;;;;;4.45;3.08;;;;;;;8.49;100.00;99858.91;5071915;28;20109;-73
2022/11/22 01:18:51;;;;;;;4.60;2.88;;;;;;;8.35;100.00;99863.50;5071982;28;20033;-73
2022/11/22 01:21:17;;;;;;;4.40;3.75;;;;;;;8.53;100.00;99853.88;5071795;28;20035;-72
2022/11/22 01:23:42;;;;;;;5.00;3.20;;;;;;;8.63;100.00;99849.94;5071640;28;20024;-73
2022/11/22 01:26:08;;;;;;;30.92;22.48;;;;;;;8.55;100.00;99862.56;5071445;28;20029;-73
2022/11/22 01:28:34;;;;;;;6.57;4.70;;;;;;;8.61;100.00;99861.91;5071521;28;20043;-73
2022/11/22 01:31:00;;;;;;;4.05;3.13;;;;;;;8.62;100.00;99857.63;5071179;28;20112;-73
2022/11/22 01:33:26;;;;;;;4.57;3.47;;;;;;;8.67;100.00;99844.09;5071563;28;20487;-74
2022/11/22 01:35:53;;;;;;;5.25;3.50;;;;;;;8.54;100.00;99808.47;5071590;28;20024;-74
2022/11/22 01:38:18;;;;;;;4.00;2.80;;;;;;;8.69;100.00;99841.56;5071227;28;20035;-74
2022/11/22 01:40:44;;;;;;;5.35;3.10;;;;;;;8.82;100.00;99859.19;5071092;28;20477;-74
2022/11/22 01:43:18;;;;;;;4.05;3.00;;;;;;;8.85;100.00;99842.97;5070164;28;20036;-74
2022/11/22 01:46:06;;;;;;;4.53;3.13;;;;;;;9.04;100.00;99877.94;5069983;28;20036;-74
2022/11/22 01:49:13;;;;;;;4.60;3.20;;;;;;;8.98;100.00;99847.69;5079167;28;20052;-73
2022/11/22 01:51:43;;;;;;;4.53;3.03;;;;;;;9.32;100.00;99897.75;4989469;28;20133;-73
2022/11/22 01:54:17;;;;;;;3.83;2.53;;;;;;;9.38;100.00;99903.09;4989631;28;20121;-73
2022/11/22 01:56:46;;;;;;;6.07;3.15;;;;;;;8.99;100.00;99869.19;4989646;28;20562;-73
2022/11/22 01:59:16;;;;;;;16.85;3.85;;;;;;;8.97;100.00;99905.19;4989431;28;20065;-73
2022/11/22 02:01:42;;;;;;;12.82;3.65;;;;;;;8.86;100.00;99889.34;4989173;28;20034;-74
2022/11/22 02:04:11;;;;;;;6.68;3.30;;;;;;;8.90;100.00;99901.50;4988234;28;20034;-74
2022/11/22 02:07:06;;;;;;;6.07;3.17;;;;;;;8.99;100.00;99907.81;4989306;28;20436;-73
2022/11/22 02:09:32;;;;;;;5.40;2.80;;;;;;;8.66;100.00;99908.34;4989260;28;20180;-73
2022/11/22 02:12:01;;;;;;;4.68;3.10;;;;;;;8.51;100.00;99911.25;4989398;28;20037;-73
2022/11/22 02:14:28;;;;;;;5.68;3.30;;;;;;;8.56;100.00;99920.00;4989091;28;20030;-74
2022/11/22 02:16:54;;;;;;;5.30;3.42;;;;;;;8.61;100.00;99920.19;4988723;28;20118;-73
2022/11/22 02:19:29;;;;;;;6.45;3.17;;;;;;;8.63;100.00;99915.97;4989098;28;20027;-73
2022/11/22 02:22:00;;;;;;;5.63;3.20;;;;;;;8.69;100.00;99918.78;5018944;28;20039;-73
2022/11/22 02:24:35;;;;;;;6.63;2.88;;;;;;;8.61;100.00;99881.59;5090603;28;20470;-73
2022/11/22 02:27:01;;;;;;;4.97;3.10;;;;;;;8.80;100.00;99920.03;5090860;28;20048;-73
2022/11/22 02:29:27;;;;;;;5.03;2.90;;;;;;;8.90;100.00;99914.38;5072510;28;20938;-73
2022/11/22 02:31:52;;;;;;;6.63;3.05;;;;;;;8.85;100.00;99904.75;5090737;28;20132;-73
2022/11/22 02:34:18;;;;;;;5.20;3.40;;;;;;;8.98;100.00;99911.19;5090443;28;20115;-73
2022/11/22 02:36:50;;;;;;;6.43;3.17;;;;;;;9.05;100.00;99910.59;5090450;28;20541;-73
2022/11/22 02:39:19;;;;;;;6.60;3.08;;;;;;;8.99;100.00;99908.66;5090430;28;20478;-73
2022/11/22 02:41:45;;;;;;;4.65;3.25;;;;;;;8.83;100.00;99896.97;5090526;28;20039;-73
2022/11/22 02:44:11;;;;;;;6.10;3.58;;;;;;;8.99;100.00;99925.81;5090697;28;20119;-73
2022/11/22 02:46:49;;;;;;;4.85;3.15;;;;;;;8.91;100.00;99902.41;5090753;28;20035;-73
2022/11/22 02:49:19;;;;;;;4.57;3.10;;;;;;;8.71;100.00;99915.44;5090722;28;20035;-73
2022/11/22 02:51:45;;;;;;;4.10;3.25;;;;;;;8.67;100.00;99916.16;5090250;28;20500;-73
2022/11/22 02:54:11;;;;;;;4.45;3.20;;;;;;;8.67;100.00;99921.31;5090339;28;20058;-73
2022/11/22 02:56:36;;;;;;;5.03;3.13;;;;;;;8.75;100.00;99921.56;5090175;28;20063;-73
2022/11/22 02:59:02;;;;;;;5.70;3.08;;;;;;;8.55;100.00;99898.56;5090458;28;20024;-74
2022/11/22 03:01:28;;;;;;;4.22;3.13;;;;;;;8.68;100.00;99927.31;5090196;28;20035;-73
2022/11/22 03:03:53;;;;;;;5.75;3.35;;;;;;;8.64;100.00;99918.59;5090373;28;20497;-73
2022/11/22 03:06:19;;;;;;;4.50;3.08;;;;;;;8.53;100.00;99920.78;5090431;28;20466;-73
2022/11/22 03:08:47;;;;;;;4.68;3.50;;;;;;;8.55;100.00;99916.56;5090081;28;20117;-73
2022/11/22 03:11:12;;;;;;;4.50;2.90;;;;;;;8.47;100.00;99896.53;5088867;28;20054;-73
2022/11/22 03:13:38;;;;;;;3.78;2.70;;;;;;;8.41;100.00;99923.75;5055421;28;20032;-74
2022/11/22 03:16:03;;;;;;;4.72;2.92;;;;;;;8.32;100.00;99922.53;5091026;28;20031;-74
2022/11/22 03:18:29;;;;;;;4.10;2.97;;;;;;;8.28;100.00;99924.13;5094439;28;20040;-74
2022/11/22 03:20:54;;;;;;;4.90;3.30;;;;;;;7.97;100.00;99884.41;5094357;28;20069;-74
2022/11/22 03:23:20;;;;;;;3.65;3.00;;;;;;;8.28;100.00;99916.41;5093946;28;20028;-74
2022/11/22 03:25:45;;;;;;;4.05;3.05;;;;;;;8.34;100.00;99919.22;5094322;28;20119;-73
2022/11/22 03:28:10;;;;;;;5.32;3.30;;;;;;;8.52;100.00;99931.91;5094064;28;20044;-73
2022/11/22 03:30:40;;;;;;;5.35;3.63;;;;;;;8.40;100.00;99913.44;5094207;28;20032;-73
2022/11/22 03:33:05;;;;;;;9.70;6.05;;;;;;;8.57;100.00;99943.25;5094126;28;20042;-73
2022/11/22 03:35:31;;;;;;;6.07;4.57;;;;;;;8.55;100.00;99946.59;5092513;28;20024;-73
2022/11/22 03:37:56;;;;;;;4.10;3.03;;;;;;;8.62;100.00;99955.41;5093808;28;20057;-73
2022/11/22 03:40:22;;;;;;;7.28;3.22;;;;;;;8.59;100.00;99966.47;5093963;28;20024;-74
2022/11/22 03:42:47;;;;;;;4.78;3.13;;;;;;;8.51;100.00;99957.56;5093800;28;20553;-74
2022/11/22 03:45:13;;;;;;;8.32;6.18;;;;;;;8.42;100.00;99948.69;5093903;28;20081;-74
2022/11/22 03:47:38;;;;;;;6.00;3.80;;;;;;;8.45;100.00;99970.16;5093646;28;20028;-73
2022/11/22 03:50:04;;;;;;;5.45;3.45;;;;;;;8.47;100.00;99973.72;5093536;28;20106;-73
2022/11/22 03:52:30;;;;;;;4.78;3.00;;;;;;;8.51;100.00;99971.31;5093563;28;20038;-73
2022/11/22 03:54:55;;;;;;;4.10;3.13;;;;;;;8.56;100.00;99982.66;5093822;28;20111;-73
2022/11/22 03:57:20;;;;;;;4.55;3.20;;;;;;;8.61;100.00;99976.78;5081212;28;20036;-74
2022/11/22 03:59:46;;;;;;;4.38;3.20;;;;;;;8.51;100.00;99981.63;5073286;28;20542;-73
2022/11/22 04:02:11;;;;;;;3.78;3.10;;;;;;;8.47;100.00;99987.44;5073022;28;20032;-73
2022/11/22 04:04:36;;;;;;;4.30;3.22;;;;;;;8.37;100.00;99990.47;5073196;28;20414;-73
2022/11/22 04:07:02;;;;;;;5.15;3.50;;;;;;;8.32;100.00;99992.00;5073211;28;20108;-73
2022/11/22 04:09:27;;;;;;;5.80;3.88;;;;;;;8.31;100.00;99995.38;5073109;28;20032;-73
2022/11/22 04:11:53;;;;;;;5.70;3.97;;;;;;;8.12;100.00;99955.22;5072984;28;20102;-73
2022/11/22 04:17:02;;;;;;;6.00;3.78;;;;;;;8.18;100.00;99997.47;5072897;28;20048;-73
2022/11/22 04:19:28;;;;;;;6.15;4.20;;;;;;;8.19;100.00;99996.66;5073024;28;20033;-73
2022/11/22 04:21:53;;;;;;;4.95;3.78;;;;;;;8.19;100.00;99999.22;5072555;28;20036;-73
2022/11/22 04:27:02;;;;;;;5.65;4.60;;;;;;;8.20;100.00;100007.81;5072017;28;20135;-73
2022/11/22 04:29:28;;;;;;;7.75;6.43;;;;;;;8.32;100.00;100021.13;5072958;28;20127;-73
2022/11/22 04:34:37;;;;;;;4.97;4.07;;;;;;;8.29;100.00;100026.19;5072590;28;20032;-73
2022/11/22 04:37:04;;;;;;;5.72;4.70;;;;;;;8.25;100.00;100027.75;5071293;28;20024;-73
2022/11/22 04:39:29;;;;;;;5.80;4.43;;;;;;;8.24;100.00;100028.56;5072429;28;20107;-73
2022/11/22 04:44:50;;;;;;;8.82;4.53;;;;;;;8.26;100.00;100036.34;4967894;28;20470;-74
2022/11/22 04:47:57;;;;;;;6.43;4.13;;;;;;;8.16;100.00;100036.78;4952010;29;20035;-74
2022/11/22 04:52:52;;;;;;;7.43;4.82;;;;;;;8.09;100.00;100057.13;4951891;29;20047;-74
2022/11/22 04:52:53;;;;;;;5.72;4.65;;;;;;;7.97;100.00;100048.03;4951677;29;20031;-74
2022/11/22 04:55:18;;;;;;;6.95;5.28;;;;;;;7.92;100.00;100069.31;4951685;29;20054;-75
2022/11/22 04:57:43;;;;;;;20.75;10.95;;;;;;;7.88;100.00;100079.41;4951752;29;20453;-74
2022/11/22 05:00:09;;;;;;;8.73;6.90;;;;;;;7.83;100.00;100084.34;4951759;28;20035;-75
2022/11/22 05:02:35;;;;;;;8.20;5.80;;;;;;;7.75;100.00;100098.53;4959612;28;20142;-73
2022/11/22 05:05:00;;;;;;;8.43;5.20;;;;;;;7.46;100.00;100049.38;4971279;28;20489;-73
2022/11/22 05:07:26;;;;;;;7.28;5.38;;;;;;;7.68;100.00;100083.69;4970830;28;20039;-73
2022/11/22 05:09:52;;;;;;;6.63;5.65;;;;;;;7.69;100.00;100098.28;4970850;28;20039;-73
2022/11/22 05:12:17;;;;;;;8.68;5.35;;;;;;;7.68;100.00;100110.25;4959800;28;20445;-75
2022/11/22 05:14:43;;;;;;;5.65;4.57;;;;;;;7.64;100.00;100105.81;4959842;28;20043;-75
2022/11/22 05:17:08;;;;;;;7.15;5.45;;;;;;;7.68;100.00;100111.97;4961701;28;20027;-75
2022/11/22 05:19:34;;;;;;;7.88;5.55;;;;;;;7.74;100.00;100113.09;4960824;28;20397;-74
2022/11/22 05:21:59;;;;;;;5.93;4.53;;;;;;;7.80;100.00;100116.72;5045966;28;20036;-75
2022/11/22 05:24:25;;;;;;;8.82;5.85;;;;;;;7.77;100.00;100118.34;5050446;28;20133;-78
2022/11/22 05:26:50;;;;;;;10.10;6.32;;;;;;;7.75;100.00;100108.81;5051570;28;20041;-77
2022/11/22 05:29:15;;;;;;;7.18;5.32;;;;;;;7.76;100.00;100126.00;5069665;28;20112;-76
2022/11/22 05:31:42;;;;;;;7.13;4.80;;;;;;;7.63;99.09;100123.72;5081917;28;20028;-75
2022/11/22 05:34:08;;;;;;;5.70;4.35;;;;;;;7.20;99.02;100132.97;5075342;28;20043;-75
2022/11/22 05:36:34;;;;;;;7.55;4.68;;;;;;;6.95;100.00;100131.84;5091499;28;20028;-74
2022/11/22 05:38:59;;;;;;;7.20;5.05;;;;;;;6.70;100.00;100120.44;5073231;28;20024;-78
2022/11/22 05:41:25;;;;;;;6.20;4.60;;;;;;;6.86;100.00;100142.56;5091635;28;20117;-79
2022/11/22 05:43:54;;;;;;;6.70;4.97;;;;;;;7.01;100.00;100138.97;5091581;28;20028;-79
2022/11/22 05:46:21;;;;;;;6.67;4.70;;;;;;;7.17;100.00;100140.56;5056722;28;20052;-76
2022/11/22 05:48:47;;;;;;;6.25;4.55;;;;;;;7.03;100.00;100115.13;5051358;28;20259;-80
2022/11/22 05:51:15;;;;;;;7.00;5.20;;;;;;;7.23;100.00;100138.25;5008768;28;20049;-79
2022/11/22 05:53:42;;;;;;;7.90;5.20;;;;;;;7.25;100.00;100136.63;5009117;28;20483;-80
2022/11/22 05:56:20;;;;;;;7.25;4.57;;;;;;;7.31;100.00;100164.28;5009004;28;20101;-80
2022/11/22 05:58:46;;;;;;;6.95;4.18;;;;;;;7.33;100.00;100160.97;5008863;28;20034;-80
2022/11/22 06:01:17;;;;;;;6.85;4.47;;;;;;;7.25;100.00;100157.16;5008954;28;20125;-79
2022/11/22 06:03:42;;;;;;;7.35;4.78;;;;;;;7.25;100.00;100155.50;4992347;28;20029;-79
2022/11/22 06:06:08;;;;;;;7.13;4.05;;;;;;;7.16;100.00;100143.94;5008811;28;20531;-80
2022/11/22 06:08:36;;;;;;;5.38;4.53;;;;;;;7.15;100.00;100149.88;4992529;28;20636;-79
2022/11/22 06:11:06;;;;;;;7.38;4.65;;;;;;;6.76;100.00;100109.59;5010723;28;20071;-79
2022/11/22 06:13:34;;;;;;;7.20;4.82;;;;;;;6.86;100.00;100149.41;5017178;28;20140;-80
2022/11/22 06:16:00;;;;;;;7.00;4.53;;;;;;;6.77;100.00;100167.81;4992279;28;20037;-78
2022/11/22 06:18:25;;;;;;;6.53;4.90;;;;;;;6.80;100.00;100155.13;5008489;28;20030;-80
2022/11/22 06:20:51;;;;;;;5.82;4.53;;;;;;;6.85;100.00;100166.47;5008484;28;20125;-80
2022/11/22 06:23:16;;;;;;;7.85;5.72;;;;;;;6.86;100.00;100177.63;5060060;28;20123;-81
2022/11/22 06:25:42;;;;;;;14.18;7.85;;;;;;;6.72;100.00;100184.69;5007380;28;20057;-80
2022/11/22 06:28:07;;;;;;;19.05;11.35;;;;;;;6.65;100.00;100183.50;4991446;28;20493;-78
2022/11/22 06:30:32;;;;;;;18.33;10.75;;;;;;;6.65;100.00;100186.06;4988297;28;20046;-79
2022/11/22 06:32:58;;;;;;;11.43;7.20;;;;;;;6.75;100.00;100201.09;4988067;28;20038;-83
2022/11/22 06:35:23;;;;;;;9.40;5.43;;;;;;;6.87;100.00;100199.94;4988333;28;20042;-79
2022/11/22 06:37:49;;;;;;;6.80;5.53;;;;;;;6.88;100.00;100183.69;4989218;28;20404;-82
2022/11/22 06:40:17;;;;;;;7.35;5.95;;;;;;;7.09;100.00;100196.66;4988230;28;20070;-78
2022/11/22 06:42:43;;;;;;;7.82;5.47;;;;;;;7.36;100.00;100209.03;4987818;28;20030;-74
2022/11/22 06:45:08;;;;;;;6.60;4.68;;;;;;;7.44;100.00;100210.25;4990647;28;20026;-76
2022/11/22 06:47:34;;;;;;;8.07;5.65;;;;;;;7.49;100.00;100208.78;4987684;28;20026;-80
2022/11/22 06:49:59;;;;;;;7.65;5.03;;;;;;;7.65;100.00;100212.03;4988163;28;20575;-77
2022/11/22 06:52:25;;;;;;;9.68;5.45;;;;;;;7.88;100.00;100221.63;4988117;28;20038;-79
2022/11/22 06:54:50;;;;;;;6.45;4.93;;;;;;;8.02;100.00;100211.06;4989190;28;20053;-85
2022/11/22 06:57:16;;;;;;;7.28;5.00;;;;;;;8.23;100.00;100235.13;5030459;28;20049;-77
2022/11/22 06:59:41;;;;;;;6.72;5.03;;;;;;;8.36;100.00;100235.63;5042136;28;20514;-76
2022/11/22 07:02:10;;;;;;;6.22;5.00;;;;;;;8.29;100.00;100229.38;5007187;28;20057;-72
2022/11/22 07:04:36;;;;;;;5.87;4.50;;;;;;;8.08;100.00;100195.91;4991143;28;20439;-73
2022/11/22 07:07:01;;;;;;;8.18;4.88;;;;;;;8.20;100.00;100223.81;5007728;28;20116;-73
2022/11/22 07:09:26;;;;;;;6.43;4.80;;;;;;;8.19;100.00;100192.09;5007685;28;20120;-73
2022/11/22 07:11:52;;;;;;;7.45;4.95;;;;;;;8.59;100.00;100236.63;5007602;28;20054;-72
2022/11/22 07:14:17;;;;;;;5.60;4.50;;;;;;;8.69;99.01;100225.88;5007691;28;20173;-72
2022/11/22 07:16:43;;;;;;;6.97;5.30;;;;;;;8.74;99.19;100226.09;5007564;28;20057;-73
2022/11/22 07:19:08;;;;;;;9.90;5.18;;;;;;;8.73;99.35;100214.03;5007641;28;20049;-75
2022/11/22 07:21:36;;;;;;;7.28;5.68;;;;;;;8.90;99.43;100218.16;5007478;28;20056;-77
2022/11/22 07:24:04;;;;;;;7.38;4.97;;;;;;;8.74;97.62;100170.31;4999808;28;20050;-78
2022/11/22 07:26:29;;;;;;;7.88;5.50;;;;;;;8.77;97.46;100179.88;4997609;28;20152;-76
2022/11/22 07:28:55;;;;;;;7.05;5.70;;;;;;;9.00;97.51;100221.09;5007388;28;20042;-77
2022/11/22 07:31:21;;;;;;;6.57;4.97;;;;;;;9.02;97.11;100222.91;5007453;28;20096;-76
2022/11/22 07:33:46;;;;;;;6.95;5.15;;;;;;;9.15;96.50;100239.72;5043420;28;20044;-76
2022/11/22 07:36:13;;;;;;;6.30;4.53;;;;;;;9.12;95.61;100249.00;5069718;28;20073;-76
2022/11/22 07:38:39;;;;;;;6.82;5.38;;;;;;;9.08;95.98;100245.44;5069603;28;20030;-77
2022/11/22 07:41:05;;;;;;;5.35;4.20;;;;;;;9.16;94.44;100244.06;5069765;28;20084;-77
2022/11/22 07:43:31;;;;;;;5.53;4.57;;;;;;;9.29;94.03;100253.13;5069639;28;20024;-77
2022/11/22 07:46:01;;;;;;;6.45;4.70;;;;;;;9.19;93.58;100217.53;5069518;28;20032;-77
2022/11/22 07:48:27;;;;;;;;;;;;;;;9.40;91.53;100250.97;5051803;28;20032;-76
2022/11/22 07:50:52;;;;;;;6.50;4.70;;;;;;;9.32;94.70;100226.59;5069576;28;19915;-75
2022/11/22 07:53:18;;;;;;;6.28;5.03;;;;;;;9.37;93.19;100225.06;5069043;28;20043;-76
2022/11/22 07:55:43;;;;;;;7.80;4.30;;;;;;;9.42;91.27;100243.28;5069263;28;20028;-76
2022/11/22 07:58:08;;;;;;;5.35;3.85;;;;;;;9.50;90.45;100229.88;5069302;28;20131;-77
2022/11/22 08:00:34;;;;;;;6.68;5.13;;;;;;;9.39;93.16;100231.16;5051087;28;20086;-76
2022/11/22 08:02:59;;;;;;;9.40;5.40;;;;;;;9.33;92.93;100228.34;5071360;28;20546;-76
2022/11/22 08:05:25;;;;;;;6.28;4.50;;;;;;;9.43;94.85;100227.88;5069574;28;20047;-78
2022/11/22 08:07:52;;;;;;;5.32;4.03;;;;;;;9.22;92.07;100238.25;5072843;28;20031;-77
2022/11/22 08:10:18;;;;;;;6.20;4.65;;;;;;;9.22;93.95;100226.25;5072843;28;20050;-77
2022/11/22 08:12:44;;;;;;;6.32;4.55;;;;;;;9.30;93.96;100203.38;5055050;28;20032;-77
2022/11/22 08:15:12;;;;;;;7.55;4.55;;;;;;;9.66;94.30;100245.94;5072337;28;20020;-76
2022/11/22 08:17:37;;;;;;;5.38;3.88;;;;;;;9.68;91.37;100233.94;5054694;28;20486;-76
2022/11/22 08:20:05;;;;;;;6.43;4.38;;;;;;;9.85;92.68;100240.59;5072888;28;20028;-76
2022/11/22 08:22:31;;;;;;;5.25;4.15;;;;;;;10.00;90.92;100236.81;5054564;28;20025;-76
2022/11/22 08:24:56;;;;;;;5.30;4.10;;;;;;;10.01;90.97;100251.47;5072646;28;20082;-76
2022/11/22 08:27:23;;;;;;;7.78;4.35;;;;;;;10.01;90.58;100243.75;5072296;28;20048;-76
2022/11/22 08:29:49;;;;;;;7.63;5.05;;;;;;;9.82;93.24;100232.75;5054279;28;20103;-76
2022/11/22 08:32:14;;;;;;;5.57;4.03;;;;;;;9.66;92.13;100236.47;5054468;28;20037;-76
2022/11/22 08:34:40;;;;;;;7.75;5.47;;;;;;;9.53;94.02;100239.41;5072473;28;20035;-76
2022/11/22 08:37:06;;;;;;;7.60;4.78;;;;;;;9.28;93.54;100232.47;5072711;28;20021;-75
2022/11/22 08:39:31;;;;;;;5.97;4.20;;;;;;;9.49;94.01;100201.47;5072821;28;20025;-76
2022/11/22 08:41:57;;;;;;;7.00;3.97;;;;;;;9.82;93.28;100224.13;5072443;28;20085;-76
2022/11/22 08:44:22;;;;;;;8.05;4.43;;;;;;;10.05;92.41;100237.84;5053691;28;20025;-76
2022/11/22 08:46:47;;;;;;;5.55;4.13;;;;;;;10.06;90.51;100244.78;5072429;28;20107;-75
2022/11/22 08:49:13;;;;;;;5.57;3.90;;;;;;;10.32;88.77;100244.81;5071881;28;20482;-76
2022/11/22 08:51:43;;;;;;;5.22;4.00;;;;;;;10.48;87.07;100243.63;5072483;28;20036;-76
2022/11/22 08:54:10;;;;;;;5.63;4.15;;;;;;;10.75;87.38;100230.75;5071773;28;20123;-76
2022/11/22 08:56:36;;;;;;;6.47;4.15;;;;;;;10.38;87.55;100172.81;5071945;28;20025;-76
2022/11/22 08:59:01;;;;;;;5.55;3.90;;;;;;;10.72;86.78;100211.75;5072162;28;20024;-75
2022/11/22 09:01:26;;;;;;;5.57;4.32;;;;;;;11.05;85.84;100221.38;5071883;28;20032;-76
2022/11/22 09:03:53;;;;;;;6.25;4.55;;;;;;;11.28;83.98;100225.53;5053937;28;20034;-76
2022/11/22 09:06:19;;;;;;;9.35;4.70;;;;;;;11.30;84.32;100225.56;5053959;28;20170;-76
2022/11/22 09:08:45;;;;;;;6.40;4.45;;;;;;;11.13;84.52;100214.75;5068690;28;20041;-75
2022/11/22 09:11:14;;;;;;;6.60;4.78;;;;;;;11.35;85.07;100221.41;5071738;28;20029;-76
2022/11/22 09:13:39;;;;;;;7.15;4.50;;;;;;;11.49;83.99;100224.44;5053202;28;20048;-75
2022/11/22 09:16:10;;;;;;;7.53;4.65;;;;;;;11.60;81.89;100214.38;5071915;28;20533;-76
2022/11/22 09:18:36;;;;;;;6.30;3.85;;;;;;;11.64;82.27;100213.66;5071423;28;20521;-75
2022/11/22 09:21:04;;;;;;;9.00;4.78;;;;;;;11.46;82.57;100207.13;5053629;28;20021;-75
2022/11/22 09:23:30;;;;;;;6.22;4.70;;;;;;;11.32;82.89;100198.94;5071529;28;20025;-76
2022/11/22 09:26:07;;;;;;;6.05;4.38;;;;;;;11.65;81.16;100195.59;5071112;28;20124;-75
2022/11/22 09:28:33;;;;;;;5.72;4.32;;;;;;;11.74;80.20;100175.97;5071586;28;20056;-76
2022/11/22 09:31:10;;;;;;;5.93;4.65;;;;;;;11.82;78.73;100152.09;5071689;28;20581;-76
2022/11/22 09:33:38;;;;;;;7.30;4.18;;;;;;;11.94;78.72;100158.41;5071380;28;20025;-75
2022/11/22 09:36:10;;;;;;;5.63;4.20;;;;;;;12.03;77.50;100143.16;5071116;28;20028;-76
2022/11/22 09:38:36;;;;;;;8.25;4.13;;;;;;;12.18;77.82;100131.47;5070991;28;20028;-76
2022/11/22 09:41:14;;;;;;;6.28;4.60;;;;;;;11.94;79.12;100071.31;5071139;28;20037;-76
2022/11/22 09:43:55;;;;;;;7.55;3.88;;;;;;;12.14;79.28;100127.91;5071099;28;20394;-75
2022/11/22 09:46:36;;;;;;;8.07;4.07;;;;;;;11.90;76.76;100099.66;5071109;28;20021;-76
2022/11/22 09:49:28;;;;;;;6.07;3.95;;;;;;;12.22;78.12;100130.69;5070738;28;20024;-76
2022/11/22 09:52:11;;;;;;;5.20;3.40;;;;;;;12.26;75.78;100124.72;5070806;28;20074;-76
2022/11/22 09:54:44;;;;;;;5.55;4.47;;;;;;;12.51;80.17;100123.63;5053036;28;20402;-75
2022/11/22 09:57:21;;;;;;;6.75;4.32;;;;;;;12.67;80.32;100121.38;5053432;28;20118;-75
2022/11/22 09:59:53;;;;;;;5.22;3.85;;;;;;;12.45;79.45;100075.16;5052775;28;20037;-75
2022/11/22 10:02:26;;;;;;;5.18;4.00;;;;;;;12.74;80.68;100108.59;5052835;28;20037;-76
2022/11/22 10:05:01;;;;;;;5.70;3.83;;;;;;;12.50;79.83;100106.34;5070779;28;20364;-76
2022/11/22 10:07:36;;;;;;;5.47;3.60;;;;;;;12.40;79.68;100097.47;5070715;28;20025;-76
2022/11/22 10:10:09;;;;;;;5.22;3.83;;;;;;;12.27;77.99;100073.03;5070726;28;20103;-76
2022/11/22 10:12:47;;;;;;;6.22;4.00;;;;;;;12.68;78.72;100107.59;5070820;28;20028;-76
2022/11/22 10:15:18;;;;;;;7.75;3.97;;;;;;;12.90;77.83;100102.03;5070544;28;20028;-75
2022/11/22 10:17:55;;;;;;;6.35;3.67;;;;;;;13.00;77.42;100102.25;5070334;28;20025;-76
2022/11/22 10:20:24;;;;;;;5.25;3.72;;;;;;;13.00;76.77;100103.13;5070689;28;20090;-75
2022/11/22 10:22:49;;;;;;;5.32;3.42;;;;;;;13.10;77.53;100099.00;5052603;28;20539;-75
2022/11/22 10:25:32;;;;;;;4.28;2.92;;;;;;;13.10;74.82;100102.47;5069464;28;20112;-76
2022/11/22 10:28:09;;;;;;;4.97;3.60;;;;;;;13.18;75.78;100076.69;5070562;28;20124;-75
2022/11/22 10:30:40;;;;;;;7.20;3.60;;;;;;;13.43;76.60;100088.47;5067738;28;20043;-76
2022/11/22 10:33:11;;;;;;;4.90;2.95;;;;;;;13.50;74.50;100093.78;5070280;28;20060;-75
2022/11/22 10:35:59;;;;;;;5.00;3.53;;;;;;;13.64;75.28;100087.09;5062677;28;20025;-75
2022/11/22 10:39:03;;;;;;;5.03;3.33;;;;;;;13.73;73.40;100087.28;5066097;28;20043;-75
2022/11/22 10:41:38;;;;;;;4.18;3.15;;;;;;;13.65;72.25;100077.63;4998293;28;20064;-76
2022/11/22 10:44:48;;;;;;;4.97;3.20;;;;;;;13.55;74.05;100067.06;5007949;28;20500;-74
2022/11/22 10:47:35;;;;;;;5.18;2.72;;;;;;;13.41;74.47;100078.91;5007704;28;20045;-74
2022/11/22 10:50:18;;;;;;;4.28;3.03;;;;;;;13.54;72.45;100085.19;5012208;28;20029;-77
2022/11/22 10:52:55;;;;;;;4.57;3.30;;;;;;;13.57;73.24;100090.41;5007675;28;20038;-75
2022/11/22 10:55:47;;;;;;;4.53;3.00;;;;;;;13.44;72.79;100063.41;5007887;28;20133;-76
2022/11/22 10:58:30;;;;;;;4.25;3.35;;;;;;;13.41;74.24;100053.84;5007748;28;20116;-77
2022/11/22 11:01:20;;;;;;;4.30;3.20;;;;;;;13.51;73.07;100039.34;5006903;28;20459;-77
2022/11/22 11:03:47;;;;;;;;;;;;;;;13.89;73.59;100077.16;4991510;28;20409;-77
2022/11/22 11:06:24;;;;;;;4.47;3.05;;;;;;;13.62;71.20;100039.53;5007642;28;19953;-75
2022/11/22 11:08:55;;;;;;;5.03;3.00;;;;;;;13.82;71.81;100059.72;5007030;28;20409;-77
2022/11/22 11:11:23;;;;;;;5.47;3.17;;;;;;;13.77;71.22;100071.75;5007423;28;20124;-78
2022/11/22 11:13:53;;;;;;;6.25;3.38;;;;;;;13.66;71.65;100051.69;4992529;28;20506;-75
2022/11/22 11:16:22;;;;;;;3.70;2.85;;;;;;;13.83;71.14;100062.38;5008654;28;20034;-77
2022/11/22 11:19:10;;;;;;;4.93;2.85;;;;;;;13.81;71.53;100065.78;5061460;28;20028;-75
2022/11/22 11:21:36;;;;;;;5.05;2.60;;;;;;;13.87;70.62;100073.69;5069658;28;20398;-74
2022/11/22 11:24:01;;;;;;;3.65;2.78;;;;;;;13.89;68.63;100056.41;5069637;28;20103;-74
2022/11/22 11:26:30;;;;;;;4.68;3.20;;;;;;;14.03;70.19;100073.09;5069311;28;20039;-74
2022/11/22 11:29:15;;;;;;;3.60;2.40;;;;;;;14.16;68.03;100055.13;5050877;28;20079;-74
2022/11/22 11:31:43;;;;;;;4.10;2.58;;;;;;;14.14;69.25;100056.81;5069136;28;20021;-74
2022/11/22 11:34:20;;;;;;;4.55;2.45;;;;;;;14.14;70.25;100057.66;5069705;28;20029;-74
2022/11/22 11:36:46;;;;;;;3.45;2.30;;;;;;;14.21;69.76;100056.06;5070881;28;20498;-76
2022/11/22 11:39:32;;;;;;;2.88;1.80;;;;;;;13.91;67.11;100024.44;5073287;28;20028;-77
2022/11/22 11:41:58;;;;;;;3.90;1.90;;;;;;;14.16;66.52;100049.94;5071669;28;20031;-78
2022/11/22 11:44:32;;;;;;;2.58;1.80;;;;;;;13.69;66.78;99953.16;5073255;28;20035;-77
2022/11/22 11:46:58;;;;;;;2.38;1.90;;;;;;;14.27;66.42;100035.38;5073372;28;20021;-78